This is the latest recevied weather packets stored in our database for station/object FW4141. If no packets are shown the sender has not sent any weather packets the latest 10 day(s).
| Time | Temp. | Humidity | Pressure | Rain* | Wind** | Luminosity | Snow |
|---|---|---|---|---|---|---|---|
| 1777945278 | 12.22° C | 85% | 1004.7 hPa | 0 mm | - | - | - |
| 1777942260 | 12.22° C | 83% | 1004.8 hPa | 0 mm | - | - | - |
| 1777941032 | 12.22° C | 82% | 1004.9 hPa | 0 mm | - | - | - |
| 1777940429 | 12.22° C | 82% | 1004.9 hPa | 0 mm | - | - | - |
| 1777932645 | 13.89° C | 74% | 1005.4 hPa | 0 mm | - | - | - |
| 1777928443 | 15.56° C | 69% | 1005.7 hPa | 0 mm | - | - | - |
| 1777927895 | 15.56° C | 68% | 1005.6 hPa | 0 mm | - | - | - |
| 1777918222 | 21.67° C | 48% | 1005.1 hPa | 0 mm | - | - | - |
| 1777916487 | 22.78° C | 41% | 1005 hPa | 0 mm | - | - | - |
| 1777914053 | 23.89° C | 37% | 1005.1 hPa | 0 mm | - | - | - |
| 1777913448 | 23.89° C | 36% | 1005.1 hPa | 0 mm | - | - | - |
| 1777909224 | 24.44° C | 35% | 1005.1 hPa | 0 mm | - | - | - |
| 1777907473 | 26.11° C | 32% | 1005.1 hPa | 0 mm | - | - | - |
| 1777901455 | 29.44° C | 22% | 1005.5 hPa | 0 mm | - | - | - |
| 1777899025 | 28.89° C | 23% | 1005.6 hPa | 0 mm | - | - | - |
| 1777893672 | 27.22° C | 27% | 1006.1 hPa | 0 mm | - | - | - |
| 1777892443 | 27.22° C | 28% | 1006.3 hPa | 0 mm | - | - | - |
| 1777889428 | 26.67° C | 31% | 1006.5 hPa | 0 mm | - | - | - |
| 1777887676 | 25° C | 32% | 1006.7 hPa | 0 mm | - | - | - |
| 1777875669 | 20° C | 44% | 1006.2 hPa | 0 mm | - | - | - |
| 1777873251 | 17.78° C | 47% | 1006.1 hPa | 0 mm | - | - | - |
| 1777872649 | 17.22° C | 52% | 1006.2 hPa | 0 mm | - | - | - |
| 1777869631 | 15.56° C | 52% | 1005.7 hPa | 0 mm | - | - | - |
| 1777867821 | 15° C | 54% | 1005.6 hPa | 0 mm | - | - | - |
| 1777864863 | 12.22° C | 65% | 1005.3 hPa | 0 mm | - | - | - |
* Rain latest hour (hover to see other rain measurements)
** Current wind speed in m/s (hover to see current wind gust speed)